Time;durP1;ratioP1;P1;durP2;ratioP2;P2;SDS_P1;SDS_P2;PMS_P1;PMS_P2;Temp;Humidity;BMP_temperature;BMP_pressure;BME280_temperature;BME280_humidity;BME280_pressure;Samples;Min_cycle;Max_cycle;Signal;HPM_P1;HPM_P2
2023/03/21 00:01:55;;;;;;;14.35;7.15;;;;;;;9.33;75.80;92966.38;5090453;28;20047;-71
2023/03/21 00:04:23;;;;;;;12.05;6.68;;;;;;;9.19;75.93;92954.63;5090099;28;20439;-71
2023/03/21 00:06:53;;;;;;;10.25;6.57;;;;;;;9.17;75.12;92954.81;5089930;28;20130;-71
2023/03/21 00:09:20;;;;;;;11.63;6.65;;;;;;;9.20;75.40;92966.44;5090042;28;20508;-72
2023/03/21 00:11:48;;;;;;;11.88;6.28;;;;;;;9.16;75.67;92960.19;5089173;28;20047;-72
2023/03/21 00:14:18;;;;;;;10.40;6.47;;;;;;;9.11;76.45;92960.78;5096569;28;20055;-72
2023/03/21 00:16:49;;;;;;;13.50;7.43;;;;;;;8.97;76.65;92961.84;5094013;28;20052;-71
2023/03/21 00:19:16;;;;;;;9.88;6.60;;;;;;;8.98;76.11;92966.75;5071983;28;20058;-72
2023/03/21 00:21:51;;;;;;;11.57;6.72;;;;;;;8.92;74.25;92947.09;5082486;28;20052;-72
2023/03/21 00:24:17;;;;;;;10.85;7.00;;;;;;;8.90;76.07;92954.19;5078085;28;20407;-72
2023/03/21 00:26:44;;;;;;;10.43;7.45;;;;;;;8.94;75.10;92963.06;5087575;28;20055;-72
2023/03/21 00:29:12;;;;;;;11.90;7.32;;;;;;;8.89;74.57;92950.84;5089920;28;20404;-72
2023/03/21 00:31:39;;;;;;;12.40;7.18;;;;;;;8.91;75.46;92955.78;5089840;28;20096;-72
2023/03/21 00:34:06;;;;;;;14.20;7.85;;;;;;;8.85;77.20;92954.81;5089953;28;20040;-72
2023/03/21 00:36:33;;;;;;;13.52;6.80;;;;;;;8.78;76.44;92952.28;5089209;28;20093;-71
2023/03/21 00:39:03;;;;;;;13.50;9.00;;;;;;;8.77;77.36;92955.06;5089643;28;20102;-71
2023/03/21 00:41:30;;;;;;;16.02;8.57;;;;;;;8.72;77.73;92953.13;5088873;28;20592;-71
2023/03/21 00:43:56;;;;;;;16.73;9.18;;;;;;;8.63;77.18;92949.19;5089687;28;20089;-71
2023/03/21 00:46:24;;;;;;;15.63;10.23;;;;;;;8.60;78.18;92960.63;5089326;28;20044;-71
2023/03/21 00:48:51;;;;;;;17.65;11.20;;;;;;;8.53;78.63;92954.75;5089720;28;20100;-71
2023/03/21 00:51:25;;;;;;;19.45;11.85;;;;;;;8.48;79.05;92962.22;5089409;28;20386;-71
2023/03/21 00:53:52;;;;;;;17.55;11.45;;;;;;;8.39;79.78;92954.75;5089871;28;20044;-71
2023/03/21 00:56:21;;;;;;;17.40;11.48;;;;;;;8.34;80.03;92952.03;5089400;28;20101;-71
2023/03/21 00:58:53;;;;;;;19.70;11.90;;;;;;;8.26;80.37;92950.50;5089468;28;20044;-71
2023/03/21 01:01:20;;;;;;;20.27;13.45;;;;;;;8.21;80.81;92947.75;5089002;28;20052;-71
2023/03/21 01:04:02;;;;;;;17.38;11.48;;;;;;;8.12;80.90;92939.50;5089865;28;20056;-71
2023/03/21 01:06:29;;;;;;;15.45;10.93;;;;;;;8.07;81.77;92938.53;5089877;28;20138;-71
2023/03/21 01:08:56;;;;;;;17.17;10.85;;;;;;;8.02;82.34;92941.69;5089391;28;20466;-71
2023/03/21 01:11:26;;;;;;;18.23;10.68;;;;;;;7.88;81.62;92920.47;5088823;28;20085;-72
2023/03/21 01:13:54;;;;;;;18.15;11.45;;;;;;;7.91;82.50;92937.97;5089318;28;20128;-71
2023/03/21 01:16:21;;;;;;;19.67;12.45;;;;;;;7.89;82.64;92932.28;5089325;28;20051;-71
2023/03/21 01:18:49;;;;;;;21.35;12.65;;;;;;;7.90;82.27;92938.94;5088865;28;20190;-71
2023/03/21 01:21:20;;;;;;;20.88;12.98;;;;;;;7.82;81.86;92931.50;5088973;28;20081;-71
2023/03/21 01:23:46;;;;;;;23.35;14.60;;;;;;;7.81;82.74;92937.59;5088593;28;20506;-71
2023/03/21 01:26:14;;;;;;;51.20;29.83;;;;;;;7.65;83.10;92926.00;5089179;28;20093;-71
2023/03/21 01:28:42;;;;;;;30.80;20.02;;;;;;;7.79;82.81;92934.44;5089316;28;20048;-71
2023/03/21 01:31:12;;;;;;;23.92;15.57;;;;;;;7.74;83.61;92940.16;5088704;28;20048;-71
2023/03/21 01:33:39;;;;;;;30.77;18.23;;;;;;;7.72;85.41;92948.03;5088686;28;20094;-71
2023/03/21 01:36:09;;;;;;;24.48;15.52;;;;;;;7.72;83.16;92942.91;5089097;28;20048;-71
2023/03/21 01:38:39;;;;;;;25.63;15.45;;;;;;;7.69;83.51;92940.75;5088333;28;20085;-72
2023/03/21 01:41:06;;;;;;;28.10;16.42;;;;;;;7.69;83.32;92935.63;5088623;28;20048;-71
2023/03/21 01:43:35;;;;;;;31.25;19.52;;;;;;;7.66;84.89;92928.38;5088610;28;20044;-71
2023/03/21 01:46:27;;;;;;;28.20;19.08;;;;;;;7.58;85.92;92926.81;5088830;28;20089;-71
2023/03/21 01:48:58;;;;;;;27.52;17.27;;;;;;;7.52;86.86;92932.72;5077996;28;20052;-72
2023/03/21 01:51:28;;;;;;;30.13;17.33;;;;;;;7.35;86.69;92920.31;5088956;28;20040;-72
2023/03/21 01:53:58;;;;;;;24.23;16.30;;;;;;;7.35;85.46;92930.53;5088943;28;20056;-71
2023/03/21 01:56:28;;;;;;;28.15;18.17;;;;;;;7.32;86.78;92930.94;5088959;28;20051;-71
2023/03/21 01:58:58;;;;;;;32.97;20.25;;;;;;;7.26;87.33;92921.50;5089182;28;20501;-71
2023/03/21 02:01:25;;;;;;;33.30;20.17;;;;;;;7.14;89.42;92921.31;5088623;28;20052;-71
2023/03/21 02:03:52;;;;;;;28.13;17.95;;;;;;;7.12;89.43;92918.13;5088837;28;20074;-71
2023/03/21 02:06:30;;;;;;;34.88;18.98;;;;;;;7.05;89.71;92919.91;5088838;28;20048;-71
2023/03/21 02:09:00;;;;;;;30.80;18.83;;;;;;;7.01;91.57;92914.41;5088516;28;20079;-71
2023/03/21 02:11:31;;;;;;;30.63;19.40;;;;;;;6.98;89.36;92914.78;5088715;28;20113;-71
2023/03/21 02:13:58;;;;;;;32.25;18.58;;;;;;;6.90;90.32;92907.31;5088788;28;20094;-72
2023/03/21 02:16:33;;;;;;;28.77;17.90;;;;;;;6.87;91.63;92920.47;5088712;28;20393;-71
2023/03/21 02:19:19;;;;;;;29.35;18.88;;;;;;;6.81;91.50;92920.25;5088921;28;20470;-72
2023/03/21 02:22:14;;;;;;;32.25;18.60;;;;;;;6.71;92.37;92924.16;5088830;28;20558;-72
2023/03/21 02:25:02;;;;;;;29.80;18.65;;;;;;;6.58;93.18;92904.50;5088857;28;20044;-72
2023/03/21 02:27:34;;;;;;;30.25;18.52;;;;;;;6.57;92.68;92911.34;5088351;28;20048;-71
2023/03/21 02:30:34;;;;;;;31.30;19.33;;;;;;;6.58;92.29;92923.16;5088772;28;20070;-71
2023/03/21 02:33:25;;;;;;;30.20;18.63;;;;;;;6.52;94.22;92919.59;5088853;28;20113;-72
2023/03/21 02:36:08;;;;;;;27.95;18.63;;;;;;;6.48;92.83;92918.41;5088934;28;20048;-72
2023/03/21 02:38:39;;;;;;;25.92;17.38;;;;;;;6.33;93.77;92912.66;5088173;28;20426;-72
2023/03/21 02:41:16;;;;;;;29.73;19.02;;;;;;;6.37;94.82;92922.31;5088979;28;20040;-72
2023/03/21 02:43:46;;;;;;;31.77;19.10;;;;;;;6.30;94.78;92921.50;5076498;28;20307;-71
2023/03/21 02:46:17;;;;;;;31.02;19.90;;;;;;;6.27;95.27;92929.50;5079183;28;20097;-72
2023/03/21 02:48:52;;;;;;;33.72;20.50;;;;;;;6.24;94.37;92932.44;5091966;28;20090;-72
2023/03/21 02:51:22;;;;;;;36.03;22.38;;;;;;;6.08;95.76;92923.34;5092336;28;20055;-72
2023/03/21 02:53:56;;;;;;;36.03;20.55;;;;;;;6.09;95.44;92919.81;5091707;28;20032;-71
2023/03/21 02:56:24;;;;;;;32.90;20.52;;;;;;;6.12;95.90;92934.75;5092197;28;20109;-72
2023/03/21 02:58:53;;;;;;;33.83;20.85;;;;;;;6.07;95.33;92921.78;5091973;28;20113;-72
2023/03/21 03:01:19;;;;;;;34.30;20.98;;;;;;;6.09;96.98;92924.91;5092056;28;20121;-73
2023/03/21 03:03:46;;;;;;;34.22;21.08;;;;;;;6.08;96.57;92923.34;5091578;28;20543;-72
2023/03/21 03:06:18;;;;;;;32.00;20.88;;;;;;;6.11;96.14;92930.63;5091570;28;20547;-72
2023/03/21 03:09:14;;;;;;;29.15;20.02;;;;;;;6.10;96.70;92929.81;5091942;28;20048;-72
2023/03/21 03:11:43;;;;;;;31.80;19.25;;;;;;;6.03;96.20;92929.03;5091680;28;20443;-72
2023/03/21 03:14:33;;;;;;;29.67;18.48;;;;;;;6.05;96.12;92926.25;5091702;28;20048;-72
2023/03/21 03:17:15;;;;;;;30.77;20.27;;;;;;;6.03;96.24;92934.13;5091845;28;20056;-72
2023/03/21 03:20:00;;;;;;;30.85;18.58;;;;;;;5.97;96.23;92927.97;5091705;28;20089;-72
2023/03/21 03:22:34;;;;;;;24.95;15.43;;;;;;;5.86;98.06;92925.94;5091470;28;20526;-72
2023/03/21 03:25:07;;;;;;;27.33;16.17;;;;;;;5.81;100.00;92929.06;5091711;28;20094;-72
2023/03/21 03:27:39;;;;;;;25.50;16.15;;;;;;;5.81;99.59;92929.06;5091258;28;20044;-72
2023/03/21 03:30:09;;;;;;;25.85;15.18;;;;;;;5.82;99.72;92930.63;5091366;28;20098;-72
2023/03/21 03:32:43;;;;;;;22.40;12.88;;;;;;;5.82;99.34;92925.53;5091422;28;20040;-71
2023/03/21 03:35:13;;;;;;;23.67;13.90;;;;;;;5.74;100.00;92923.91;5091117;28;20435;-71
2023/03/21 03:37:41;;;;;;;23.95;14.88;;;;;;;5.66;100.00;92928.38;5091157;28;20090;-71
2023/03/21 03:40:15;;;;;;;25.65;16.98;;;;;;;5.33;100.00;92916.97;5090837;28;20060;-71
2023/03/21 03:42:47;;;;;;;23.25;12.82;;;;;;;5.44;100.00;92926.66;5091214;28;20071;-71
2023/03/21 03:45:14;;;;;;;23.33;15.40;;;;;;;5.40;100.00;92925.44;5090514;28;20090;-71
2023/03/21 03:47:44;;;;;;;27.55;16.13;;;;;;;5.40;100.00;92922.91;5090871;28;20070;-71
2023/03/21 03:50:20;;;;;;;25.52;16.73;;;;;;;5.42;100.00;92918.41;5090431;28;20093;-73
2023/03/21 03:52:51;;;;;;;28.10;17.10;;;;;;;5.47;100.00;92911.00;5090038;28;20043;-73
2023/03/21 03:55:22;;;;;;;26.75;17.10;;;;;;;5.56;100.00;92918.50;5090965;28;20047;-72
2023/03/21 03:57:49;;;;;;;23.38;15.82;;;;;;;5.51;100.00;92918.28;5090278;28;20044;-72
2023/03/21 04:00:17;;;;;;;23.83;16.55;;;;;;;5.51;100.00;92918.28;5090854;28;20447;-72
2023/03/21 04:02:44;;;;;;;27.60;17.02;;;;;;;5.44;100.00;92905.47;5090661;28;20126;-72
2023/03/21 04:05:11;;;;;;;27.45;18.10;;;;;;;5.41;100.00;92908.41;5090400;28;20496;-72
2023/03/21 04:07:40;;;;;;;29.60;19.85;;;;;;;5.45;100.00;92910.41;5090650;28;20047;-72
2023/03/21 04:10:07;;;;;;;33.97;20.15;;;;;;;5.44;100.00;92901.19;5090305;28;20465;-72
2023/03/21 04:12:35;;;;;;;34.53;19.90;;;;;;;5.40;100.00;92899.97;5090492;28;20047;-72
2023/03/21 04:15:02;;;;;;;37.90;20.98;;;;;;;5.38;100.00;92893.50;5090505;28;20040;-72
2023/03/21 04:17:29;;;;;;;38.90;22.15;;;;;;;5.38;100.00;92893.50;5090274;28;20098;-72
2023/03/21 04:19:55;;;;;;;39.83;23.70;;;;;;;5.34;100.00;92893.06;5089910;28;20048;-72
2023/03/21 04:22:22;;;;;;;33.00;20.35;;;;;;;5.33;100.00;92904.25;5090017;28;20451;-72
2023/03/21 04:24:49;;;;;;;39.00;22.35;;;;;;;5.15;100.00;92885.13;5090300;28;20089;-72
2023/03/21 04:27:15;;;;;;;38.00;22.33;;;;;;;5.28;100.00;92904.78;5089974;28;20123;-72
2023/03/21 04:29:44;;;;;;;35.30;20.92;;;;;;;5.26;100.00;92898.28;5090433;28;20127;-72
2023/03/21 04:32:15;;;;;;;36.03;20.83;;;;;;;5.15;100.00;92894.50;5090152;28;20089;-72
2023/03/21 04:34:42;;;;;;;30.00;17.92;;;;;;;5.14;100.00;92891.16;5090298;28;20048;-72
2023/03/21 04:37:11;;;;;;;28.23;17.48;;;;;;;5.10;100.00;92894.25;5089866;28;20134;-72
2023/03/21 04:39:38;;;;;;;29.40;16.80;;;;;;;5.07;100.00;92895.41;5103217;28;20097;-72
2023/03/21 04:42:05;;;;;;;30.23;17.67;;;;;;;5.02;100.00;92900.25;5090115;28;20044;-72
2023/03/21 04:44:31;;;;;;;30.27;16.75;;;;;;;5.00;100.00;92905.53;5089870;28;20048;-72
2023/03/21 04:47:00;;;;;;;30.42;18.95;;;;;;;5.01;100.00;92899.50;5090338;28;20431;-72
2023/03/21 04:49:26;;;;;;;28.80;18.27;;;;;;;4.93;100.00;92887.69;5089557;28;20465;-72
2023/03/21 04:51:53;;;;;;;36.08;21.33;;;;;;;5.03;100.00;92910.28;5089868;28;20086;-72
2023/03/21 04:54:20;;;;;;;40.83;21.75;;;;;;;5.02;100.00;92918.09;5089486;28;20051;-72
2023/03/21 04:56:47;;;;;;;35.15;20.70;;;;;;;5.03;100.00;92915.38;5089498;28;20148;-72
2023/03/21 04:59:15;;;;;;;36.25;21.48;;;;;;;4.99;100.00;92911.59;5089658;28;20044;-72
2023/03/21 05:01:42;;;;;;;36.13;19.73;;;;;;;4.90;100.00;92899.97;5089699;28;20114;-72
2023/03/21 05:04:12;;;;;;;28.90;18.45;;;;;;;5.05;100.00;92920.28;5089109;28;20056;-72
2023/03/21 05:06:41;;;;;;;37.10;19.52;;;;;;;5.14;100.00;92928.56;5089690;28;20048;-72
2023/03/21 05:09:08;;;;;;;29.25;18.65;;;;;;;5.18;100.00;92920.38;5089444;28;20048;-72
2023/03/21 05:11:37;;;;;;;32.35;18.23;;;;;;;5.22;100.00;92926.69;5089557;28;20048;-72
2023/03/21 05:14:05;;;;;;;27.85;17.45;;;;;;;5.32;100.00;92928.16;5089332;28;20102;-72
2023/03/21 05:16:33;;;;;;;27.52;17.00;;;;;;;5.30;100.00;92910.50;5089526;28;20101;-72
2023/03/21 05:19:05;;;;;;;34.50;19.27;;;;;;;5.30;100.00;92904.59;5089286;28;20039;-72
2023/03/21 05:21:40;;;;;;;27.70;17.30;;;;;;;5.46;100.00;92929.03;5089721;28;20048;-72
2023/03/21 05:24:11;;;;;;;26.77;16.65;;;;;;;5.47;100.00;92931.38;5089133;28;20059;-72
2023/03/21 05:26:38;;;;;;;31.80;17.95;;;;;;;5.56;100.00;92931.25;5089047;28;20434;-72
2023/03/21 05:29:05;;;;;;;28.88;17.17;;;;;;;5.53;100.00;92918.88;5088967;28;20048;-72
2023/03/21 05:31:33;;;;;;;29.95;18.45;;;;;;;5.52;100.00;92907.09;5088934;28;20500;-72
2023/03/21 05:33:59;;;;;;;35.80;19.83;;;;;;;5.52;100.00;92915.56;5089300;28;20044;-72
2023/03/21 05:36:26;;;;;;;36.78;20.90;;;;;;;5.66;100.00;92923.28;5089157;28;20136;-72
2023/03/21 05:38:57;;;;;;;43.85;24.25;;;;;;;5.54;100.00;92913.59;5088945;28;20048;-72
2023/03/21 05:41:24;;;;;;;34.78;20.95;;;;;;;5.72;100.00;92915.69;5089148;28;20284;-73
2023/03/21 05:43:51;;;;;;;33.80;19.20;;;;;;;5.85;100.00;92916.72;5089164;28;20165;-72
2023/03/21 05:46:17;;;;;;;31.20;20.10;;;;;;;5.96;100.00;92902.66;5088924;28;20093;-72
2023/03/21 05:48:46;;;;;;;46.10;22.60;;;;;;;6.14;100.00;92918.28;5089175;28;20043;-72
2023/03/21 05:51:13;;;;;;;44.00;21.38;;;;;;;6.31;100.00;92915.41;5088633;28;20044;-73
2023/03/21 05:53:40;;;;;;;32.25;18.50;;;;;;;6.40;100.00;92910.94;5089408;28;20071;-72
2023/03/21 05:56:10;;;;;;;30.42;16.35;;;;;;;6.39;100.00;92901.72;5083490;28;20060;-73
2023/03/21 05:58:37;;;;;;;37.03;19.90;;;;;;;6.36;100.00;92879.13;5075613;28;20071;-72
2023/03/21 06:01:04;;;;;;;38.13;23.83;;;;;;;6.65;99.28;92903.53;5087369;28;20503;-73
2023/03/21 06:03:31;;;;;;;55.65;33.13;;;;;;;6.77;99.08;92905.53;5088764;28;20048;-73
2023/03/21 06:05:58;;;;;;;53.83;31.33;;;;;;;6.57;98.81;92867.97;5088486;28;20496;-72
2023/03/21 06:08:24;;;;;;;47.53;29.45;;;;;;;6.68;97.07;92871.75;5088526;28;20044;-73
2023/03/21 06:10:51;;;;;;;51.15;28.00;;;;;;;6.80;97.83;92866.84;5088324;28;20041;-73
2023/03/21 06:13:20;;;;;;;39.22;23.90;;;;;;;7.01;97.48;92893.97;5088894;28;20048;-73
2023/03/21 06:15:47;;;;;;;28.90;17.48;;;;;;;7.10;98.68;92894.56;5088228;28;20052;-72
2023/03/21 06:18:13;;;;;;;28.98;17.80;;;;;;;7.04;97.23;92880.03;5092340;28;20048;-72
2023/03/21 06:20:41;;;;;;;29.90;17.65;;;;;;;7.12;99.11;92889.28;5092574;28;20048;-72
2023/03/21 06:23:08;;;;;;;30.88;16.70;;;;;;;7.25;98.81;92903.81;5092532;28;20060;-73
2023/03/21 06:25:34;;;;;;;27.27;16.30;;;;;;;7.36;96.91;92898.09;5092215;28;20090;-72
2023/03/21 06:28:01;;;;;;;27.65;15.98;;;;;;;7.44;97.47;92894.56;5092363;28;20096;-72
2023/03/21 06:30:29;;;;;;;29.30;16.48;;;;;;;7.53;96.60;92897.69;5091991;28;20040;-72
2023/03/21 06:32:56;;;;;;;27.92;16.95;;;;;;;7.60;94.37;92899.25;5092165;28;20044;-72
2023/03/21 06:35:22;;;;;;;33.40;20.38;;;;;;;7.71;94.94;92899.66;5092325;28;20121;-73
2023/03/21 06:37:49;;;;;;;34.88;19.58;;;;;;;7.81;94.48;92897.47;5092161;28;20098;-73
2023/03/21 06:40:17;;;;;;;36.80;20.95;;;;;;;7.91;93.21;92901.38;5092003;28;20056;-73
2023/03/21 06:42:43;;;;;;;28.48;17.65;;;;;;;8.07;91.27;92907.84;5092322;28;20052;-72
2023/03/21 06:45:10;;;;;;;24.83;15.73;;;;;;;8.24;90.66;92906.41;5091802;28;20090;-72
2023/03/21 06:47:38;;;;;;;24.85;17.73;;;;;;;8.35;89.04;92892.19;5092114;28;20048;-72
2023/03/21 06:50:06;;;;;;;27.70;16.45;;;;;;;8.63;88.42;92906.47;5092200;28;20101;-72
2023/03/21 06:52:33;;;;;;;23.77;14.50;;;;;;;8.89;88.10;92902.19;5091867;28;20051;-72
2023/03/21 06:55:00;;;;;;;26.70;15.68;;;;;;;9.12;87.83;92898.28;5092031;28;20040;-72
2023/03/21 06:57:26;;;;;;;30.20;14.60;;;;;;;9.39;85.27;92899.88;5091997;28;20534;-72
2023/03/21 06:59:53;;;;;;;27.35;15.18;;;;;;;9.58;84.21;92904.03;5091987;28;20090;-72
2023/03/21 07:02:20;;;;;;;29.15;13.98;;;;;;;9.81;83.11;92896.75;5092015;28;20086;-72
2023/03/21 07:04:48;;;;;;;20.50;12.43;;;;;;;9.94;79.16;92890.69;5091504;28;20563;-72
2023/03/21 07:07:15;;;;;;;25.38;13.95;;;;;;;10.16;78.83;92897.00;5091425;28;20459;-72
2023/03/21 07:09:42;;;;;;;29.25;14.07;;;;;;;10.29;77.03;92896.03;5091751;28;20048;-72
2023/03/21 07:12:09;;;;;;;25.50;13.52;;;;;;;10.51;77.43;92899.97;5091427;28;20044;-72
2023/03/21 07:14:35;;;;;;;22.35;12.30;;;;;;;10.71;77.46;92894.59;5091586;28;20136;-72
2023/03/21 07:17:02;;;;;;;24.73;12.20;;;;;;;10.90;76.22;92892.75;5091358;28;20393;-72
2023/03/21 07:19:29;;;;;;;25.15;12.43;;;;;;;11.08;75.28;92894.44;5091606;28;20098;-72
2023/03/21 07:21:59;;;;;;;27.23;13.88;;;;;;;11.28;74.29;92895.16;5091738;28;20135;-72
2023/03/21 07:24:26;;;;;;;23.10;13.20;;;;;;;11.47;71.09;92888.16;5091620;28;20051;-72
2023/03/21 07:26:52;;;;;;;29.38;14.18;;;;;;;11.52;69.56;92892.63;5091242;28;20059;-73
2023/03/21 07:29:22;;;;;;;25.00;12.88;;;;;;;11.68;70.63;92896.31;5091638;28;20094;-73
2023/03/21 07:31:48;;;;;;;25.33;14.38;;;;;;;11.84;71.09;92893.06;5090790;28;20040;-73
2023/03/21 07:34:16;;;;;;;28.38;16.80;;;;;;;11.90;68.92;92891.41;5091192;28;20518;-73
2023/03/21 07:36:43;;;;;;;33.53;17.17;;;;;;;11.83;68.58;92898.44;5091200;28;20044;-73
2023/03/21 07:39:11;;;;;;;34.13;16.65;;;;;;;11.46;69.56;92887.38;5090872;28;20117;-73
2023/03/21 07:41:38;;;;;;;48.97;26.90;;;;;;;11.34;72.11;92895.06;5091043;28;20051;-73
2023/03/21 07:44:05;;;;;;;31.08;15.35;;;;;;;11.09;71.83;92901.19;5090781;28;20036;-73
2023/03/21 07:46:31;;;;;;;32.83;14.98;;;;;;;11.05;72.60;92900.06;5091053;28;20108;-73
2023/03/21 07:48:58;;;;;;;29.73;13.88;;;;;;;10.69;74.81;92899.13;5091130;28;20044;-73
2023/03/21 07:51:25;;;;;;;30.75;14.35;;;;;;;10.73;75.88;92900.28;5091051;28;20119;-73
2023/03/21 07:53:52;;;;;;;28.83;13.43;;;;;;;10.91;77.70;92908.94;5091255;28;20047;-73
2023/03/21 07:56:20;;;;;;;34.53;14.15;;;;;;;11.01;74.14;92909.19;5090502;28;20044;-73
2023/03/21 07:58:47;;;;;;;33.78;14.57;;;;;;;11.14;73.99;92910.00;5090523;28;20102;-73
2023/03/21 08:01:14;;;;;;;44.20;15.68;;;;;;;11.34;73.64;92907.16;5090715;28;20051;-73
2023/03/21 08:03:42;;;;;;;37.95;16.20;;;;;;;11.43;74.19;92907.63;5090914;28;20542;-73
2023/03/21 08:06:09;;;;;;;40.45;14.73;;;;;;;11.34;72.05;92900.22;5090217;28;20044;-73
2023/03/21 08:08:36;;;;;;;48.92;18.17;;;;;;;11.33;73.23;92888.38;5096199;28;20097;-73
2023/03/21 08:11:04;;;;;;;56.10;18.73;;;;;;;11.30;71.56;92880.31;5090301;28;20443;-73
2023/03/21 08:13:32;;;;;;;54.22;17.63;;;;;;;11.31;72.60;92889.59;5090621;28;20044;-73
2023/03/21 08:15:59;;;;;;;55.13;18.35;;;;;;;11.38;73.71;92886.94;5090125;28;20040;-73
2023/03/21 08:18:26;;;;;;;47.20;17.98;;;;;;;11.69;73.64;92890.16;5090489;28;20381;-73
2023/03/21 08:20:53;;;;;;;49.50;17.85;;;;;;;11.84;71.59;92887.13;5090391;28;20052;-73
2023/03/21 08:23:20;;;;;;;53.67;18.90;;;;;;;12.02;68.75;92891.38;5090204;28;20416;-73
2023/03/21 08:25:50;;;;;;;49.58;17.77;;;;;;;12.11;68.66;92884.91;5090151;28;20044;-73
2023/03/21 08:28:17;;;;;;;40.55;16.88;;;;;;;12.34;68.98;92885.88;5089974;28;20138;-73
2023/03/21 08:30:45;;;;;;;53.83;16.95;;;;;;;12.35;68.27;92866.06;5072733;28;20068;-73
2023/03/21 08:33:13;;;;;;;46.47;15.80;;;;;;;12.72;66.81;92888.09;5088146;28;20560;-73
2023/03/21 08:35:40;;;;;;;42.42;17.15;;;;;;;12.77;66.30;92895.94;5089999;28;20403;-73
2023/03/21 08:38:07;;;;;;;47.38;17.00;;;;;;;12.91;67.75;92892.03;5089806;28;20098;-73
2023/03/21 08:40:35;;;;;;;37.20;14.98;;;;;;;13.13;65.15;92895.72;5089645;28;20075;-73
2023/03/21 08:43:02;;;;;;;42.55;14.15;;;;;;;13.26;64.09;92889.50;5089676;28;20550;-73
2023/03/21 08:45:29;;;;;;;37.72;14.05;;;;;;;13.44;63.37;92891.06;5089336;28;20089;-73
2023/03/21 08:47:57;;;;;;;31.17;13.45;;;;;;;13.46;62.40;92886.44;5089925;28;20047;-73
2023/03/21 08:50:28;;;;;;;34.33;13.13;;;;;;;13.32;62.12;92850.66;5089342;28;20094;-73
2023/03/21 08:52:55;;;;;;;34.95;13.02;;;;;;;13.74;62.69;92885.59;5089888;28;20472;-73
2023/03/21 08:55:21;;;;;;;35.13;13.45;;;;;;;13.75;61.78;92883.81;5087301;28;20070;-73
2023/03/21 08:57:48;;;;;;;37.80;12.65;;;;;;;13.63;59.93;92886.47;5069281;28;20048;-73
2023/03/21 09:00:17;;;;;;;29.75;12.10;;;;;;;13.69;62.13;92882.16;5069341;28;20566;-73
2023/03/21 09:02:45;;;;;;;33.22;13.07;;;;;;;13.55;61.34;92867.00;5071656;28;20045;-73
2023/03/21 09:05:15;;;;;;;33.22;12.32;;;;;;;13.44;64.12;92871.22;5069435;28;20041;-73
2023/03/21 09:07:42;;;;;;;36.67;13.48;;;;;;;13.05;63.50;92868.56;5069982;28;20055;-72
2023/03/21 09:10:12;;;;;;;28.73;12.77;;;;;;;12.89;61.72;92859.78;5069862;28;20048;-72
2023/03/21 09:12:39;;;;;;;27.23;11.80;;;;;;;13.16;63.95;92848.84;5085690;28;20496;-72
2023/03/21 09:15:11;;;;;;;31.23;12.15;;;;;;;13.48;61.33;92856.84;5089404;28;20052;-72
2023/03/21 09:17:40;;;;;;;32.03;12.43;;;;;;;13.72;61.76;92859.25;5085163;28;20530;-72
2023/03/21 09:20:10;;;;;;;29.92;11.40;;;;;;;13.80;59.17;92844.38;5089441;28;20059;-72
2023/03/21 09:22:39;;;;;;;36.53;13.15;;;;;;;13.65;60.21;92837.22;5089303;28;20385;-72
2023/03/21 09:25:22;;;;;;;35.22;12.50;;;;;;;13.85;59.29;92836.69;5096612;28;20084;-72
2023/03/21 09:28:04;;;;;;;30.73;11.93;;;;;;;14.09;60.23;92833.88;5089075;28;20518;-72
2023/03/21 09:30:32;;;;;;;32.53;10.95;;;;;;;14.39;61.20;92848.94;5089774;28;20044;-72
2023/03/21 09:33:00;;;;;;;30.85;12.02;;;;;;;14.62;59.77;92836.78;5089681;28;20056;-72
2023/03/21 09:35:27;;;;;;;22.95;10.70;;;;;;;14.82;57.13;92830.28;5088990;28;20059;-72
2023/03/21 09:37:56;;;;;;;24.73;10.68;;;;;;;14.91;57.20;92818.44;5089324;28;20056;-72
2023/03/21 09:40:38;;;;;;;30.30;12.20;;;;;;;15.03;55.45;92820.88;5089475;28;20460;-72
2023/03/21 09:43:20;;;;;;;25.42;9.52;;;;;;;14.87;55.58;92817.41;5088907;28;20416;-72
2023/03/21 09:45:55;;;;;;;22.40;9.70;;;;;;;15.13;55.38;92816.81;5088860;28;20052;-72
2023/03/21 09:48:40;;;;;;;25.88;9.18;;;;;;;15.30;53.13;92817.44;5088711;28;20412;-72
2023/03/21 09:51:14;;;;;;;21.00;9.45;;;;;;;15.28;52.75;92803.97;5089416;28;20571;-72
2023/03/21 09:53:46;;;;;;;20.25;8.88;;;;;;;15.60;54.11;92800.53;5093409;28;20043;-72
2023/03/21 09:56:14;;;;;;;22.30;8.52;;;;;;;15.88;53.41;92788.25;5092593;28;20531;-72
2023/03/21 09:58:46;;;;;;;55.30;21.75;;;;;;;15.88;51.54;92795.25;5093191;28;20048;-72
2023/03/21 10:01:21;;;;;;;23.85;9.98;;;;;;;15.91;50.25;92786.97;5093020;28;20047;-72
2023/03/21 10:03:48;;;;;;;24.13;10.60;;;;;;;16.30;50.13;92791.03;5092593;28;20058;-72
2023/03/21 10:06:16;;;;;;;31.15;11.52;;;;;;;16.23;49.84;92793.84;5092574;28;20040;-72
2023/03/21 10:08:47;;;;;;;26.05;11.35;;;;;;;16.50;49.19;92785.09;5092814;28;20567;-72
2023/03/21 10:11:20;;;;;;;16.33;6.85;;;;;;;16.01;47.31;92789.63;5079748;28;20047;-72
2023/03/21 10:13:53;;;;;;;25.30;9.30;;;;;;;15.57;47.62;92764.81;5092572;28;20469;-72
2023/03/21 10:16:27;;;;;;;66.60;24.13;;;;;;;15.41;47.81;92786.47;5092673;28;20044;-72
2023/03/21 10:19:10;;;;;;;10.20;6.03;;;;;;;15.56;45.94;92794.31;5092616;28;20047;-73
2023/03/21 10:21:42;;;;;;;16.63;10.77;;;;;;;15.23;46.08;92809.13;5092818;28;20052;-72
2023/03/21 10:24:12;;;;;;;11.48;6.68;;;;;;;15.46;44.70;92813.16;5093064;28;20192;-72
2023/03/21 10:26:39;;;;;;;7.13;4.75;;;;;;;15.53;45.47;92809.56;5092495;28;20048;-72
2023/03/21 10:29:07;;;;;;;7.70;4.32;;;;;;;15.89;45.16;92794.22;5092502;28;20055;-72
2023/03/21 10:31:34;;;;;;;49.25;15.57;;;;;;;15.87;45.32;92804.03;5092551;28;20073;-72
2023/03/21 10:34:06;;;;;;;11.90;6.03;;;;;;;15.93;45.09;92794.53;5087579;28;20076;-72
2023/03/21 10:36:34;;;;;;;520.65;176.38;;;;;;;15.61;44.88;92802.09;5077136;28;20040;-73
2023/03/21 10:39:04;;;;;;;118.80;37.95;;;;;;;15.58;45.83;92794.06;5092507;28;20044;-72
2023/03/21 10:41:33;;;;;;;191.60;58.70;;;;;;;15.84;46.80;92794.19;5091467;28;20132;-72
2023/03/21 10:44:09;;;;;;;57.83;21.75;;;;;;;16.26;46.84;92785.56;5092218;28;20056;-72
2023/03/21 10:46:35;;;;;;;;;;;;;;;16.09;43.79;92784.97;5092019;28;20044;-73
2023/03/21 10:49:21;;;;;;;9.65;5.38;;;;;;;15.83;44.50;92774.50;5092286;28;19919;-72
2023/03/21 10:51:52;;;;;;;8.35;5.05;;;;;;;16.23;43.94;92780.91;5091625;28;20044;-73
2023/03/21 10:54:21;;;;;;;9.13;5.25;;;;;;;16.46;46.44;92771.09;5092005;28;20412;-73
2023/03/21 10:57:01;;;;;;;14.02;6.22;;;;;;;16.78;46.86;92762.31;5092243;28;20056;-73
2023/03/21 10:59:39;;;;;;;17.17;9.00;;;;;;;16.60;43.47;92773.16;5091865;28;20094;-73
2023/03/21 11:02:13;;;;;;;9.57;5.20;;;;;;;16.88;43.30;92771.91;5091178;28;20048;-73
2023/03/21 11:04:42;;;;;;;10.77;5.47;;;;;;;16.74;42.19;92774.25;5091873;28;20048;-73
2023/03/21 11:07:19;;;;;;;10.40;5.30;;;;;;;16.74;41.51;92765.66;5092131;28;20059;-73
2023/03/21 11:09:48;;;;;;;9.32;5.05;;;;;;;16.89;42.39;92762.31;5091993;28;20160;-73
2023/03/21 11:12:18;;;;;;;9.15;5.32;;;;;;;17.27;43.61;92760.22;5092227;28;20507;-73
2023/03/21 11:14:47;;;;;;;8.88;5.07;;;;;;;17.25;40.74;92753.75;5092101;28;20151;-72
2023/03/21 11:17:28;;;;;;;8.98;4.85;;;;;;;16.80;42.08;92752.44;5092418;28;20102;-72
2023/03/21 11:19:58;;;;;;;9.05;4.97;;;;;;;17.09;42.07;92740.81;5092579;28;20105;-72
2023/03/21 11:22:30;;;;;;;10.15;4.78;;;;;;;17.19;41.88;92740.00;5092096;28;20101;-72
2023/03/21 11:25:00;;;;;;;10.90;5.00;;;;;;;16.73;42.96;92720.03;5089832;28;20044;-72
2023/03/21 11:27:29;;;;;;;8.00;5.18;;;;;;;16.69;42.57;92741.31;5091614;28;20055;-72
2023/03/21 11:29:58;;;;;;;8.65;5.18;;;;;;;16.50;43.71;92727.28;5091590;28;20048;-72
2023/03/21 11:32:30;;;;;;;8.65;4.63;;;;;;;16.13;43.61;92727.25;5091150;28;20495;-72
2023/03/21 11:35:00;;;;;;;12.48;6.55;;;;;;;16.13;43.74;92747.19;5091174;28;20048;-72